»·PEaware :: QXE3858 KOTH-KPDX

QXE3858 :: KOTH-KPDX

FLIGHT INFORMATION

Flight Status: Arrived
Operator:
Horizon Air
More flights by this operator :: More flights under this callsign
Pilot: Skye D. (10623)
Aircraft: DEHAVILLAND DASH 8 400
(DH8D)
More flights by this aircraft type
Origin: KOTH North Bend Mun
United States
Destination: KPDX Portland Intl
United States
More flights between these airports :: More routes between these airports
Route: +OTH6 OTH V287 UBG
File this flight plan on PilotEdge
Remarks:
Altitude:
(Current/Filed)
17,000ft
Speed:
(Current/Filed)
318kts
Departed: 18-Sep-18 10:59 AM
Arrived: 18-Sep-18 11:38 AM
Distance/Time
Traveled:
148nm/0:39
Distance/Time
To Go:
Arrived

Flight Plot

Page will automatically refresh every two minutes.

Flight plan parsing failed; only flown route is shown


Map Options




Map Legend


Flown Route
Filed Route
Departure Airport
Arrival Airport
Navaid (VOR, NDB)
Fix

Horizontal Profiles

Position Reports

Time Latitude Longitude Heading Altitude Ground
Speed
18-Sep-18 10:33 43.416873 -124.249559 211 30ft 0kts
18-Sep-18 10:34 43.416873 -124.249559 211 30ft 0kts
18-Sep-18 10:35 43.416873 -124.249559 211 30ft 0kts
18-Sep-18 10:36 43.416873 -124.249559 211 30ft 0kts
18-Sep-18 10:37 43.416873 -124.249559 211 30ft 0kts
18-Sep-18 10:38 43.416873 -124.249559 211 30ft 0kts
18-Sep-18 10:39 43.416873 -124.249559 211 30ft 0kts
18-Sep-18 10:40 43.416873 -124.249559 211 30ft 0kts
18-Sep-18 10:41 43.416873 -124.249559 211 30ft 0kts
18-Sep-18 10:42 43.416873 -124.249559 211 30ft 0kts
18-Sep-18 10:43 43.416873 -124.249559 211 30ft 0kts
18-Sep-18 10:44 43.416873 -124.249559 211 30ft 0kts
18-Sep-18 10:45 43.416873 -124.249559 211 30ft 0kts
18-Sep-18 10:46 43.416873 -124.249559 211 30ft 0kts
18-Sep-18 10:47 43.416873 -124.249559 211 30ft 0kts
18-Sep-18 10:48 43.416873 -124.249559 211 30ft 0kts
18-Sep-18 10:49 43.416873 -124.249559 211 30ft 0kts
18-Sep-18 10:50 43.416873 -124.249559 211 30ft 0kts
18-Sep-18 10:51 43.416873 -124.249559 211 30ft 0kts
18-Sep-18 10:52 43.416873 -124.249559 211 30ft 0kts
18-Sep-18 10:53 43.416857 -124.249583 220 30ft 0kts
18-Sep-18 10:54 43.417279 -124.249341 6 26ft 6kts
18-Sep-18 10:55 43.417554 -124.249433 333 24ft 0kts
18-Sep-18 10:56 43.418199 -124.249048 59 23ft 9kts
18-Sep-18 10:57 43.420136 -124.244401 66 13ft 14kts
18-Sep-18 10:58 43.421920 -124.240495 349 9ft 3kts
18-Sep-18 10:59 43.421971 -124.240524 333 9ft 0kts
18-Sep-18 11:00 43.422615 -124.241002 318 8ft 6kts
18-Sep-18 11:01 43.417665 -124.253373 243 62ft 137kts
18-Sep-18 11:02 43.411182 -124.307126 287 2099ft 164kts
18-Sep-18 11:03 43.446937 -124.319862 50 3914ft 199kts
18-Sep-18 11:04 43.437489 -124.246317 117 6413ft 220kts
18-Sep-18 11:05 43.412832 -124.161475 81 8010ft 259kts
18-Sep-18 11:06 43.463941 -124.109995 14 10202ft 257kts
18-Sep-18 11:07 43.532028 -124.077646 27 12268ft 273kts
18-Sep-18 11:08 43.605889 -124.047164 9 14054ft 288kts
18-Sep-18 11:09 43.682112 -124.009389 20 15998ft 297kts
18-Sep-18 11:10 43.759912 -123.963222 21 16990ft 327kts
18-Sep-18 11:11 43.844518 -123.912391 21 16982ft 336kts
18-Sep-18 11:12 43.930835 -123.860353 21 16963ft 340kts
18-Sep-18 11:13 44.016690 -123.808429 21 16963ft 341kts
18-Sep-18 11:14 44.103210 -123.755938 21 16962ft 339kts
18-Sep-18 11:15 44.189148 -123.703633 21 16964ft 339kts
18-Sep-18 11:16 44.274943 -123.651241 21 17001ft 337kts
18-Sep-18 11:17 44.361168 -123.598284 21 16973ft 338kts
18-Sep-18 11:18 44.447072 -123.545398 21 16973ft 338kts
18-Sep-18 11:19 44.532434 -123.492771 21 16973ft 338kts
18-Sep-18 11:20 44.618859 -123.439322 21 16973ft 338kts
18-Sep-18 11:21 44.704559 -123.386147 21 16999ft 338kts
18-Sep-18 11:22 44.790203 -123.333009 21 16990ft 338kts
18-Sep-18 11:23 44.876614 -123.279331 22 16302ft 342kts
18-Sep-18 11:24 44.962624 -123.225458 22 15295ft 338kts
18-Sep-18 11:25 45.047438 -123.172141 22 14290ft 332kts
18-Sep-18 11:26 45.129451 -123.120332 22 12595ft 322kts
18-Sep-18 11:27 45.209459 -123.069690 22 10972ft 312kts
18-Sep-18 11:28 45.286061 -123.021078 23 9980ft 278kts
18-Sep-18 11:29 45.327328 -122.942943 67 9735ft 265kts
18-Sep-18 11:30 45.353550 -122.847166 67 8665ft 270kts
18-Sep-18 11:31 45.380349 -122.749575 67 8007ft 269kts
18-Sep-18 11:32 45.406903 -122.653239 66 6872ft 263kts
18-Sep-18 11:33 45.432395 -122.561612 66 5356ft 254kts
18-Sep-18 11:34 45.452378 -122.468323 59 3483ft 247kts
18-Sep-18 11:35 45.506912 -122.434825 5 2292ft 188kts
18-Sep-18 11:36 45.540192 -122.477410 294 1710ft 170kts
18-Sep-18 11:37 45.558196 -122.526370 297 836ft 128kts
18-Sep-18 11:38 45.571745 -122.561813 300 396ft 103kts
18-Sep-18 11:39 45.584316 -122.593738 300 21ft 64kts
18-Sep-18 11:40 45.586798 -122.597152 27 20ft 2kts
18-Sep-18 11:41 45.586899 -122.594894 120 23ft 10kts
18-Sep-18 11:42 45.586344 -122.593031 54 23ft 5kts
18-Sep-18 11:43 45.586475 -122.592763 55 23ft 0kts
18-Sep-18 11:44 45.586475 -122.592763 55 23ft 0kts

Navigation Log

Ident Type
Flight plan parsing failed, navigation log unavailable